Time;durP1;ratioP1;P1;durP2;ratioP2;P2;SDS_P1;SDS_P2;PMS_P1;PMS_P2;Temp;Humidity;BMP_temperature;BMP_pressure;BME280_temperature;BME280_humidity;BME280_pressure;Samples;Min_cycle;Max_cycle;Signal;HPM_P1;HPM_P2
2022/01/10 00:02:04;;;;;;;25.50;13.80;;;;;;;0.09;83.97;96317.50;110187;1249;59765;-70
2022/01/10 00:04:33;;;;;;;38.70;19.90;;;;;;;0.09;84.35;96320.27;110034;1247;59699;-69
2022/01/10 00:07:03;;;;;;;33.20;16.80;;;;;;;0.04;85.18;96328.02;110188;1250;69953;-70
2022/01/10 00:09:33;;;;;;;22.70;13.30;;;;;;;0.03;84.87;96331.70;110168;1250;67948;-72
2022/01/10 00:12:02;;;;;;;22.60;13.00;;;;;;;0.03;84.60;96329.27;110118;1249;69106;-70
2022/01/10 00:14:37;;;;;;;31.20;15.70;;;;;;;0.04;84.57;96323.72;109977;1249;60065;-69
2022/01/10 00:17:06;;;;;;;28.80;15.50;;;;;;;0.03;84.84;96322.23;110173;1249;60105;-66
2022/01/10 00:19:35;;;;;;;31.10;15.70;;;;;;;0.04;84.39;96325.09;110138;1248;71609;-70
2022/01/10 00:22:07;;;;;;;29.10;15.00;;;;;;;0.02;85.01;96325.74;110101;1248;67220;-67
2022/01/10 00:24:37;;;;;;;39.60;20.90;;;;;;;-0.02;85.41;96325.89;110195;1250;68463;-67
2022/01/10 00:27:06;;;;;;;34.50;17.50;;;;;;;-0.03;85.37;96323.20;110223;1250;59766;-68
2022/01/10 00:29:35;;;;;;;39.10;19.60;;;;;;;-0.03;85.25;96319.81;110176;1248;59684;-67
2022/01/10 00:32:05;;;;;;;35.80;18.60;;;;;;;-0.03;85.51;96322.03;109992;1250;71570;-69
2022/01/10 00:34:34;;;;;;;40.40;20.90;;;;;;;-0.03;85.37;96325.10;109968;1250;67625;-68
2022/01/10 00:37:03;;;;;;;18.50;10.70;;;;;;;-0.03;85.22;96330.08;110117;1249;69531;-69
2022/01/10 00:39:33;;;;;;;33.90;17.60;;;;;;;0.00;84.81;96340.89;109991;1250;59756;-69
2022/01/10 00:42:02;;;;;;;22.20;12.50;;;;;;;0.00;84.90;96334.58;110029;1247;59632;-70
2022/01/10 00:44:37;;;;;;;28.80;15.70;;;;;;;0.03;84.49;96334.08;110171;1247;70747;-70
2022/01/10 00:47:08;;;;;;;21.10;12.30;;;;;;;0.05;84.39;96339.46;110026;1250;68076;-69
2022/01/10 00:49:38;;;;;;;36.90;17.90;;;;;;;0.07;84.25;96343.64;110135;1249;69858;-69
2022/01/10 00:52:08;;;;;;;33.00;17.00;;;;;;;0.08;84.25;96338.97;110189;1248;59745;-68
2022/01/10 00:54:39;;;;;;;25.60;13.80;;;;;;;0.09;84.10;96337.39;110164;1249;59688;-68
2022/01/10 00:57:09;;;;;;;27.20;12.80;;;;;;;0.09;84.22;96338.74;110167;1248;70869;-69
2022/01/10 00:59:39;;;;;;;27.50;15.40;;;;;;;0.10;84.13;96335.10;110223;1250;67730;-67
2022/01/10 01:02:08;;;;;;;34.70;17.70;;;;;;;0.11;84.15;96331.29;110039;1248;69478;-69
2022/01/10 01:04:38;;;;;;;30.40;14.10;;;;;;;0.11;84.22;96325.95;110053;1249;59825;-67
2022/01/10 01:07:07;;;;;;;29.40;13.90;;;;;;;0.09;84.70;96324.36;109986;1250;59757;-70
2022/01/10 01:09:39;;;;;;;29.20;13.70;;;;;;;0.09;84.57;96323.66;110135;1248;71642;-69
2022/01/10 01:17:31;;;;;;;41.40;19.20;;;;;;;-0.02;85.88;96309.45;109961;1249;59760;-69
2022/01/10 01:20:28;;;;;;;34.30;16.40;;;;;;;-0.05;85.66;96316.45;110110;1250;59689;-71
2022/01/10 01:25:43;;;;;;;35.70;18.00;;;;;;;-0.03;85.47;96321.51;109940;1250;68518;-70
2022/01/10 01:28:12;;;;;;;25.10;12.70;;;;;;;-0.03;85.38;96319.95;110216;1247;68635;-68
2022/01/10 01:30:42;;;;;;;33.50;16.20;;;;;;;0.00;84.96;96317.96;110199;1249;59695;-68
2022/01/10 01:33:15;;;;;;;17.50;9.60;;;;;;;0.02;85.09;96315.67;110201;1247;59700;-69
2022/01/10 01:35:45;;;;;;;22.90;13.10;;;;;;;0.05;84.83;96315.48;110215;1247;71481;-70
2022/01/10 01:38:15;;;;;;;34.40;16.90;;;;;;;0.06;84.83;96320.21;110023;1250;67941;-70
2022/01/10 01:40:58;;;;;;;31.80;14.50;;;;;;;0.08;84.47;96320.80;109895;1250;69246;-73
2022/01/10 01:43:28;;;;;;;22.90;12.70;;;;;;;0.08;84.52;96316.37;110036;1249;59801;-70
2022/01/10 01:45:57;;;;;;;22.80;12.70;;;;;;;0.09;84.64;96320.27;110253;1247;59734;-70
2022/01/10 01:48:28;;;;;;;32.00;15.90;;;;;;;0.09;84.58;96320.95;109988;1250;70530;-71
2022/01/10 01:50:57;;;;;;;27.80;14.00;;;;;;;0.09;84.49;96321.97;110152;1249;68454;-70
2022/01/10 01:53:27;;;;;;;30.20;16.00;;;;;;;0.08;84.53;96320.49;109994;1250;68851;-70
2022/01/10 01:56:00;;;;;;;16.50;7.50;;;;;;;0.08;84.61;96322.02;110180;1247;59778;-72
2022/01/10 01:58:29;;;;;;;44.00;20.60;;;;;;;0.09;84.97;96335.48;110140;1249;59711;-71
2022/01/10 02:01:00;;;;;;;38.00;18.30;;;;;;;0.07;85.12;96336.11;110115;1247;70640;-70
2022/01/10 02:03:30;;;;;;;26.00;14.00;;;;;;;0.08;84.86;96334.16;110026;1249;68618;-70
2022/01/10 02:06:01;;;;;;;45.20;21.10;;;;;;;0.09;84.85;96335.85;110249;1247;68480;-69
2022/01/10 02:08:38;;;;;;;46.60;21.90;;;;;;;0.05;85.46;96329.35;110152;1249;59744;-70
2022/01/10 02:11:10;;;;;;;32.60;16.40;;;;;;;0.05;85.26;96325.59;110020;1249;59733;-70
2022/01/10 02:13:41;;;;;;;29.30;14.90;;;;;;;0.06;84.93;96320.55;110251;1247;71375;-70
2022/01/10 02:16:32;;;;;;;41.70;20.40;;;;;;;0.09;85.00;96316.14;110195;1248;68641;-69
2022/01/10 02:19:04;;;;;;;45.90;23.80;;;;;;;0.10;85.30;96309.25;110196;1249;68658;-72
2022/01/10 02:21:35;;;;;;;46.20;21.80;;;;;;;0.05;85.81;96304.20;109997;1250;59714;-69
2022/01/10 02:24:06;;;;;;;31.20;15.30;;;;;;;-0.03;85.72;96300.41;109791;1252;59654;-67
2022/01/10 02:26:37;;;;;;;30.40;16.40;;;;;;;-0.04;85.77;96302.70;110035;1250;70845;-67
2022/01/10 02:29:07;;;;;;;32.40;14.90;;;;;;;-0.04;85.53;96310.08;110096;1248;68588;-67
2022/01/10 02:31:39;;;;;;;23.80;11.80;;;;;;;-0.02;85.23;96310.64;110146;1249;69331;-68
2022/01/10 02:34:10;;;;;;;32.40;14.80;;;;;;;0.01;84.97;96313.44;110035;1250;59731;-68
2022/01/10 02:36:40;;;;;;;31.80;15.10;;;;;;;0.04;84.95;96310.72;110082;1249;59682;-70
2022/01/10 02:39:11;;;;;;;32.40;14.00;;;;;;;0.07;84.71;96314.52;110023;1250;71568;-70
2022/01/10 02:41:43;;;;;;;32.30;15.90;;;;;;;0.10;84.57;96314.58;109774;1250;68030;-70
2022/01/10 02:44:17;;;;;;;25.40;12.40;;;;;;;0.09;84.66;96312.36;109869;1250;69429;-67
2022/01/10 02:46:47;;;;;;;27.30;15.10;;;;;;;0.11;84.64;96313.52;109977;1250;59752;-69
2022/01/10 02:49:37;;;;;;;27.10;12.80;;;;;;;0.11;84.50;96314.85;110033;1250;59680;-67
2022/01/10 02:52:07;;;;;;;32.10;15.50;;;;;;;0.12;84.50;96314.95;110027;1249;71610;-68
2022/01/10 02:54:37;;;;;;;33.20;17.10;;;;;;;0.14;84.46;96317.27;110048;1249;68586;-67
2022/01/10 02:57:14;;;;;;;24.50;12.20;;;;;;;0.15;84.51;96319.13;109924;1250;69392;-67
2022/01/10 02:59:43;;;;;;;25.60;13.30;;;;;;;0.16;84.33;96321.27;110006;1250;60123;-67
2022/01/10 03:02:19;;;;;;;30.80;14.10;;;;;;;0.16;84.25;96319.55;109765;1250;59720;-70
2022/01/10 03:04:50;;;;;;;30.90;14.80;;;;;;;0.16;84.20;96323.87;110074;1250;70732;-71
2022/01/10 03:07:24;;;;;;;48.40;19.50;;;;;;;0.15;84.27;96323.07;109990;1250;68639;-67
2022/01/10 03:09:54;;;;;;;36.70;18.00;;;;;;;0.15;84.43;96323.36;110047;1248;68992;-67
2022/01/10 03:12:25;;;;;;;33.70;17.40;;;;;;;0.16;84.50;96323.50;110004;1250;59719;-69
2022/01/10 03:14:54;;;;;;;36.80;18.60;;;;;;;0.17;84.47;96324.29;110026;1250;59704;-67
2022/01/10 03:17:24;;;;;;;31.10;15.30;;;;;;;0.19;84.48;96323.70;109974;1250;71999;-68
2022/01/10 03:19:54;;;;;;;26.60;13.70;;;;;;;0.19;84.58;96322.85;110072;1249;67784;-70
2022/01/10 03:22:26;;;;;;;26.60;15.50;;;;;;;0.19;84.50;96329.04;110129;1250;68637;-67
2022/01/10 03:24:56;;;;;;;21.50;9.20;;;;;;;0.20;84.56;96334.13;109956;1250;59659;-67
2022/01/10 03:27:26;;;;;;;;;;;;;;;0.21;84.48;96344.14;110079;1250;59732;-71
2022/01/10 03:29:55;;;;;;;27.10;12.00;;;;;;;0.23;84.31;96344.07;110182;1250;70684;-68
2022/01/10 03:32:25;;;;;;;30.00;14.50;;;;;;;0.23;84.26;96348.34;110253;1247;68593;-69
2022/01/10 03:34:59;;;;;;;28.20;15.40;;;;;;;0.23;84.15;96346.45;109934;1250;69426;-68
2022/01/10 03:37:29;;;;;;;25.40;13.80;;;;;;;0.22;84.16;96356.09;109947;1250;59703;-69
2022/01/10 03:39:59;;;;;;;44.90;21.10;;;;;;;0.22;84.19;96350.44;110158;1249;59687;-70
2022/01/10 03:42:28;;;;;;;44.40;19.50;;;;;;;0.20;84.47;96351.77;110005;1250;70755;-67
2022/01/10 03:45:06;;;;;;;28.00;15.60;;;;;;;0.20;84.35;96352.30;110045;1249;67456;-70
2022/01/10 03:47:35;;;;;;;35.30;18.40;;;;;;;0.21;84.33;96353.44;110053;1250;68787;-70
2022/01/10 03:50:05;;;;;;;17.20;8.40;;;;;;;0.21;84.29;96357.54;110164;1248;59703;-69
2022/01/10 03:52:35;;;;;;;24.60;12.50;;;;;;;0.22;84.13;96356.63;110021;1247;59736;-69
2022/01/10 03:55:05;;;;;;;27.60;16.10;;;;;;;0.22;84.09;96357.80;110039;1247;70749;-67
2022/01/10 03:57:35;;;;;;;29.20;15.10;;;;;;;0.22;84.16;96360.02;110199;1247;67239;-69
2022/01/10 04:00:07;;;;;;;33.90;18.00;;;;;;;0.22;84.36;96366.91;110026;1247;68639;-69
2022/01/10 04:02:52;;;;;;;28.00;14.70;;;;;;;0.23;84.38;96370.30;110084;1250;59750;-68
2022/01/10 04:05:25;;;;;;;31.90;17.10;;;;;;;0.23;84.20;96373.70;110056;1248;59736;-69
2022/01/10 04:07:55;;;;;;;35.50;19.20;;;;;;;0.23;84.43;96377.48;110044;1250;70824;-68
2022/01/10 04:10:24;;;;;;;33.90;17.70;;;;;;;0.23;84.35;96377.63;110142;1247;67854;-67
2022/01/10 04:12:54;;;;;;;28.30;15.40;;;;;;;0.23;84.33;96379.88;109915;1247;69507;-69
2022/01/10 04:15:24;;;;;;;;;;;;;;;0.24;84.43;96380.36;110038;1250;59747;-71
2022/01/10 04:17:56;;;;;;;29.50;15.30;;;;;;;0.24;84.48;96379.48;110162;1247;59697;-69
2022/01/10 04:20:26;;;;;;;34.00;16.30;;;;;;;0.26;84.55;96384.21;110262;1247;70762;-70
2022/01/10 04:22:55;;;;;;;34.40;17.60;;;;;;;0.25;84.73;96386.64;110231;1247;68683;-70
2022/01/10 04:25:25;;;;;;;35.00;17.30;;;;;;;0.26;84.81;96391.55;110257;1247;69433;-71
2022/01/10 04:27:55;;;;;;;;;;;;;;;0.27;84.63;96392.54;110232;1247;59736;-69
2022/01/10 04:30:30;;;;;;;39.10;17.50;;;;;;;0.27;84.76;96387.41;110211;1247;59668;-68
2022/01/10 04:33:01;;;;;;;49.20;22.30;;;;;;;0.26;84.98;96391.06;110034;1250;71590;-69
2022/01/10 04:35:32;;;;;;;42.30;19.90;;;;;;;0.22;85.23;96391.73;110061;1248;68529;-68
2022/01/10 04:38:02;;;;;;;41.90;19.50;;;;;;;0.22;85.13;96392.94;110029;1247;69607;-68
2022/01/10 04:40:32;;;;;;;39.80;19.60;;;;;;;0.24;85.01;96397.51;110222;1247;59758;-68
2022/01/10 04:43:02;;;;;;;22.70;11.70;;;;;;;0.24;84.86;96399.36;110056;1250;59704;-68
2022/01/10 04:45:31;;;;;;;26.10;13.50;;;;;;;0.26;84.70;96398.91;110092;1249;72014;-69
2022/01/10 04:48:01;;;;;;;27.30;15.90;;;;;;;0.28;84.65;96405.35;110162;1250;67911;-68
2022/01/10 04:51:03;;;;;;;48.60;20.50;;;;;;;0.29;84.50;96404.44;110144;1247;68485;-69
2022/01/10 04:53:23;;;;;;;33.80;17.10;;;;;;;0.30;84.82;96412.96;109865;1250;59750;-68
2022/01/10 04:55:52;;;;;;;31.90;18.00;;;;;;;0.31;84.65;96424.55;109903;1250;59747;-69
2022/01/10 04:58:23;;;;;;;25.10;12.40;;;;;;;0.33;84.64;96432.20;109960;1250;71559;-68
2022/01/10 05:00:54;;;;;;;40.00;19.90;;;;;;;0.35;84.51;96433.14;109943;1248;68618;-70
2022/01/10 05:03:25;;;;;;;30.50;15.10;;;;;;;0.35;84.66;96435.86;109953;1248;69559;-69
2022/01/10 05:05:55;;;;;;;35.40;17.90;;;;;;;0.37;84.41;96438.15;110199;1247;59671;-69
2022/01/10 05:08:26;;;;;;;31.10;15.90;;;;;;;0.39;84.35;96437.58;110140;1247;59754;-71
2022/01/10 05:10:56;;;;;;;26.70;12.20;;;;;;;0.40;84.37;96442.11;110176;1247;71350;-68
2022/01/10 05:13:26;;;;;;;28.40;14.50;;;;;;;0.41;84.29;96443.10;109814;1250;68631;-71
2022/01/10 05:15:55;;;;;;;31.10;16.60;;;;;;;0.43;84.18;96443.91;110065;1250;69427;-69
2022/01/10 05:18:25;;;;;;;46.20;21.30;;;;;;;0.43;84.45;96449.73;110188;1247;59757;-68
2022/01/10 05:20:54;;;;;;;34.10;16.20;;;;;;;0.42;84.48;96456.27;109965;1250;59718;-68
2022/01/10 05:23:23;;;;;;;27.10;14.90;;;;;;;0.43;84.23;96453.11;109857;1250;71578;-70
2022/01/10 05:25:52;;;;;;;21.40;8.40;;;;;;;0.44;84.16;96452.92;109871;1250;68823;-69
2022/01/10 05:28:22;;;;;;;52.60;21.80;;;;;;;0.45;83.94;96460.73;110027;1250;69667;-67
2022/01/10 05:30:53;;;;;;;31.60;14.30;;;;;;;0.44;84.34;96470.23;109991;1250;59818;-67
2022/01/10 05:33:27;;;;;;;50.30;22.50;;;;;;;0.43;83.93;96468.93;110056;1250;60142;-69
2022/01/10 05:35:56;;;;;;;51.80;21.40;;;;;;;0.38;84.69;96476.33;109948;1250;70103;-70
2022/01/10 05:38:25;;;;;;;50.20;20.60;;;;;;;0.33;85.10;96481.36;110026;1250;68631;-68
2022/01/10 05:40:54;;;;;;;31.30;14.70;;;;;;;0.30;84.97;96485.45;109871;1250;68707;-70
2022/01/10 05:43:23;;;;;;;28.80;12.60;;;;;;;0.31;84.58;96490.21;110001;1250;59725;-68
2022/01/10 05:45:55;;;;;;;30.70;14.00;;;;;;;0.32;84.50;96490.83;110050;1249;59725;-68
2022/01/10 05:48:30;;;;;;;33.80;16.70;;;;;;;0.33;84.39;96491.66;109922;1249;72004;-69
2022/01/10 05:51:02;;;;;;;18.90;9.30;;;;;;;0.36;84.50;96492.73;109996;1250;68784;-69
2022/01/10 05:53:32;;;;;;;36.20;17.50;;;;;;;0.38;84.43;96491.42;109997;1250;69438;-68
2022/01/10 05:56:02;;;;;;;34.90;16.40;;;;;;;0.40;84.46;96488.94;109943;1250;59769;-67
2022/01/10 05:58:34;;;;;;;48.00;22.10;;;;;;;0.40;84.62;96492.55;110186;1248;59672;-69
2022/01/10 06:01:04;;;;;;;43.10;20.10;;;;;;;0.39;84.60;96492.60;109906;1250;71207;-69
2022/01/10 06:03:33;;;;;;;56.50;25.80;;;;;;;0.35;84.86;96496.70;110029;1250;68542;-69
2022/01/10 06:06:05;;;;;;;49.90;21.70;;;;;;;0.31;85.11;96503.05;110150;1249;68653;-70
2022/01/10 06:08:34;;;;;;;53.20;23.30;;;;;;;0.30;85.11;96504.66;110020;1249;60122;-70
2022/01/10 06:11:03;;;;;;;39.40;19.00;;;;;;;0.30;85.10;96511.02;110002;1250;59642;-69
2022/01/10 06:13:38;;;;;;;46.20;21.50;;;;;;;0.31;85.14;96510.10;110166;1249;71032;-69
2022/01/10 06:16:08;;;;;;;30.70;15.60;;;;;;;0.32;84.95;96516.42;110183;1250;68473;-67
2022/01/10 06:18:41;;;;;;;31.10;14.90;;;;;;;0.32;84.72;96518.11;110183;1250;68644;-68
2022/01/10 06:21:11;;;;;;;31.60;15.60;;;;;;;0.34;84.56;96519.20;110067;1250;59758;-69
2022/01/10 06:23:40;;;;;;;27.40;15.90;;;;;;;0.37;84.47;96523.21;110166;1250;59733;-69
2022/01/10 06:26:09;;;;;;;30.60;14.20;;;;;;;0.39;84.59;96528.23;110064;1250;71282;-68
2022/01/10 06:28:39;;;;;;;23.10;11.00;;;;;;;0.41;84.48;96530.54;109990;1250;67858;-71
2022/01/10 06:31:09;;;;;;;23.80;11.20;;;;;;;0.43;84.23;96535.40;109919;1250;70142;-71
2022/01/10 06:33:45;;;;;;;34.50;17.10;;;;;;;0.45;84.08;96539.08;110263;1247;59678;-69
2022/01/10 06:36:14;;;;;;;26.00;13.50;;;;;;;0.46;84.08;96538.02;110166;1248;59594;-67
2022/01/10 06:38:44;;;;;;;35.20;18.60;;;;;;;0.48;84.02;96543.57;110148;1250;70878;-66
2022/01/10 06:41:14;;;;;;;;;;;;;;;0.49;84.32;96544.73;110161;1247;67807;-66
2022/01/10 06:43:43;;;;;;;68.90;26.70;;;;;;;0.48;84.74;96550.45;110168;1250;68624;-70
2022/01/10 06:46:12;;;;;;;32.90;14.90;;;;;;;0.45;85.10;96552.80;110142;1250;59726;-67
2022/01/10 06:48:42;;;;;;;57.90;25.90;;;;;;;0.45;84.66;96557.11;110134;1250;59631;-67
2022/01/10 06:51:16;;;;;;;43.80;21.90;;;;;;;0.42;84.87;96562.73;110136;1247;71953;-70
2022/01/10 06:53:47;;;;;;;41.10;19.00;;;;;;;0.40;85.01;96566.42;109985;1250;67783;-70
2022/01/10 06:56:16;;;;;;;31.80;16.50;;;;;;;0.38;84.79;96564.77;110078;1249;70113;-67
2022/01/10 06:58:45;;;;;;;41.90;21.40;;;;;;;0.39;84.63;96570.38;110021;1250;59752;-68
2022/01/10 07:01:19;;;;;;;33.40;16.80;;;;;;;0.39;84.64;96571.08;110147;1250;59664;-72
2022/01/10 07:03:52;;;;;;;33.10;16.60;;;;;;;0.42;84.34;96571.46;109969;1250;70749;-68
2022/01/10 07:06:23;;;;;;;42.00;22.60;;;;;;;0.45;84.06;96576.62;110048;1250;69423;-68
2022/01/10 07:08:53;;;;;;;35.90;18.20;;;;;;;0.46;84.18;96581.73;110126;1250;69308;-67
2022/01/10 07:11:29;;;;;;;34.10;17.80;;;;;;;0.47;84.15;96584.60;109833;1250;59724;-68
2022/01/10 07:13:59;;;;;;;45.60;22.20;;;;;;;0.49;84.12;96584.85;109737;1252;59691;-70
2022/01/10 07:16:28;;;;;;;38.70;19.80;;;;;;;0.51;83.95;96584.27;109788;1251;70835;-66
2022/01/10 07:19:01;;;;;;;43.90;19.50;;;;;;;0.51;84.08;96582.55;109843;1249;68628;-67
2022/01/10 07:21:39;;;;;;;48.80;22.70;;;;;;;0.46;84.74;96578.98;109874;1250;68752;-68
2022/01/10 07:24:10;;;;;;;40.80;18.40;;;;;;;0.46;84.50;96583.46;109907;1252;59699;-70
2022/01/10 07:26:39;;;;;;;43.20;20.90;;;;;;;0.49;84.21;96588.28;109941;1250;59718;-72
2022/01/10 07:29:08;;;;;;;30.40;15.90;;;;;;;0.51;83.98;96592.66;109917;1250;71551;-68
2022/01/10 07:31:39;;;;;;;31.60;16.20;;;;;;;0.54;84.06;96594.27;109844;1250;67669;-71
2022/01/10 07:34:10;;;;;;;;;;;;;;;0.58;84.13;96599.54;109755;1251;69970;-70
2022/01/10 07:36:39;;;;;;;32.70;17.60;;;;;;;0.62;84.09;96602.61;109945;1250;59721;-69
2022/01/10 07:39:10;;;;;;;58.60;27.90;;;;;;;0.68;83.86;96600.98;109936;1250;59680;-69
2022/01/10 07:41:44;;;;;;;52.70;26.50;;;;;;;0.74;84.12;96598.48;109935;1250;71565;-69
2022/01/10 07:44:20;;;;;;;45.80;22.80;;;;;;;0.78;83.98;96598.27;109941;1250;67621;-69
2022/01/10 07:46:49;;;;;;;43.10;20.90;;;;;;;0.80;83.84;96597.31;109928;1250;69594;-69
2022/01/10 07:49:19;;;;;;;37.20;18.70;;;;;;;0.86;83.82;96599.79;109914;1251;60084;-69
2022/01/10 07:51:48;;;;;;;46.30;23.60;;;;;;;0.93;83.83;96602.86;109963;1252;59741;-70
2022/01/10 07:54:17;;;;;;;53.60;28.20;;;;;;;0.98;83.85;96604.36;109891;1250;71473;-70
2022/01/10 07:56:47;;;;;;;53.00;25.90;;;;;;;1.01;83.70;96608.02;110005;1250;67651;-70
2022/01/10 07:59:17;;;;;;;40.70;21.10;;;;;;;1.07;83.65;96612.17;109932;1250;69381;-72
2022/01/10 08:01:47;;;;;;;53.20;27.60;;;;;;;1.11;83.56;96619.00;109902;1250;59702;-70
2022/01/10 08:04:16;;;;;;;40.50;20.60;;;;;;;1.14;83.64;96623.33;109948;1252;59736;-70
2022/01/10 08:06:45;;;;;;;39.50;20.00;;;;;;;1.15;83.22;96621.38;109868;1249;71562;-69
2022/01/10 08:09:14;;;;;;;38.80;19.80;;;;;;;1.18;83.25;96626.21;109791;1250;69211;-69
2022/01/10 08:11:43;;;;;;;43.40;20.90;;;;;;;1.24;83.07;96631.26;109795;1250;68859;-69
2022/01/10 08:14:13;;;;;;;46.40;22.10;;;;;;;1.31;82.92;96633.69;109831;1249;59708;-71
2022/01/10 08:16:42;;;;;;;31.90;17.30;;;;;;;1.38;82.86;96636.44;109776;1252;60131;-70
2022/01/10 08:19:11;;;;;;;37.60;20.00;;;;;;;1.46;82.52;96633.96;109923;1251;70750;-69
2022/01/10 08:21:39;;;;;;;36.10;19.50;;;;;;;1.55;82.53;96631.31;109948;1250;67831;-70
2022/01/10 08:24:08;;;;;;;34.80;17.90;;;;;;;1.66;82.43;96632.29;109963;1250;68608;-71
2022/01/10 08:26:37;;;;;;;45.90;23.90;;;;;;;1.77;82.09;96633.13;109904;1250;60138;-70
2022/01/10 08:29:08;;;;;;;28.00;14.80;;;;;;;1.82;81.41;96635.98;109972;1249;59681;-71
2022/01/10 08:31:37;;;;;;;32.70;17.40;;;;;;;1.86;81.43;96632.84;110042;1250;71134;-70
2022/01/10 08:34:06;;;;;;;33.70;15.90;;;;;;;1.90;81.40;96630.92;110057;1250;67874;-72
2022/01/10 08:36:35;;;;;;;28.00;15.30;;;;;;;1.93;81.32;96628.02;109960;1249;70123;-72
2022/01/10 08:39:06;;;;;;;30.90;17.00;;;;;;;1.97;81.09;96630.36;109855;1250;59758;-70
2022/01/10 08:41:36;;;;;;;38.00;19.30;;;;;;;2.02;80.87;96627.08;110053;1250;59605;-67
2022/01/10 08:44:05;;;;;;;33.10;17.20;;;;;;;2.09;80.64;96630.30;110000;1251;71555;-69
2022/01/10 08:46:35;;;;;;;27.40;15.30;;;;;;;2.18;80.51;96634.13;109815;1250;68636;-67
2022/01/10 08:49:04;;;;;;;27.10;16.00;;;;;;;2.30;80.52;96634.55;110037;1250;69491;-67
2022/01/10 08:51:34;;;;;;;30.80;16.60;;;;;;;2.47;80.16;96636.24;109730;1251;59817;-68
2022/01/10 08:54:04;;;;;;;28.50;16.30;;;;;;;2.65;79.58;96641.84;109888;1250;60092;-69
2022/01/10 08:56:33;;;;;;;25.60;13.50;;;;;;;2.81;79.76;96643.34;109948;1250;72144;-69
2022/01/10 08:59:06;;;;;;;30.70;18.10;;;;;;;2.99;78.77;96649.44;109876;1250;68569;-67
2022/01/10 09:01:35;;;;;;;26.20;16.70;;;;;;;3.13;77.49;96650.59;110000;1250;69869;-69
2022/01/10 09:04:04;;;;;;;22.30;14.10;;;;;;;3.25;77.99;96657.48;109861;1251;59679;-68
2022/01/10 09:06:33;;;;;;;29.30;16.30;;;;;;;3.38;77.37;96657.11;109902;1250;59696;-71
2022/01/10 09:09:06;;;;;;;29.60;15.70;;;;;;;3.48;77.39;96659.14;109903;1250;71358;-69
2022/01/10 09:11:35;;;;;;;28.00;15.10;;;;;;;3.53;76.93;96660.36;109763;1250;247813;-67
2022/01/10 09:14:06;;;;;;;27.80;17.10;;;;;;;3.56;76.82;96656.27;110019;1250;69547;-71
2022/01/10 09:16:35;;;;;;;25.30;16.50;;;;;;;3.53;76.28;96659.20;109805;1252;59714;-71
2022/01/10 09:19:04;;;;;;;28.40;15.30;;;;;;;3.44;76.05;96662.08;109874;1251;60137;-69
2022/01/10 09:21:33;;;;;;;30.20;17.60;;;;;;;3.41;76.51;96662.08;109943;1251;70708;-70
2022/01/10 09:24:03;;;;;;;30.30;16.70;;;;;;;3.42;76.41;96661.37;109924;1251;69201;-69
2022/01/10 09:26:32;;;;;;;29.50;17.40;;;;;;;3.38;75.70;96658.12;109984;1250;69586;-70
2022/01/10 09:29:01;;;;;;;33.40;20.00;;;;;;;3.34;75.74;96657.64;109887;1250;59712;-68
2022/01/10 09:31:30;;;;;;;25.20;15.40;;;;;;;3.28;75.61;96659.76;110043;1251;59676;-71
2022/01/10 09:34:00;;;;;;;23.90;14.90;;;;;;;3.31;76.09;96659.59;109916;1250;71569;-67
2022/01/10 09:36:31;;;;;;;21.60;12.80;;;;;;;3.35;75.88;96655.75;109884;1250;67607;-68
2022/01/10 09:39:02;;;;;;;27.30;16.70;;;;;;;3.42;75.72;96654.80;109884;1251;68562;-69
2022/01/10 09:41:32;;;;;;;35.70;21.10;;;;;;;3.48;75.45;96654.30;110143;1250;59751;-69
2022/01/10 09:44:03;;;;;;;36.40;21.40;;;;;;;3.55;75.61;96652.53;109925;1248;59726;-70
2022/01/10 09:46:33;;;;;;;40.20;23.00;;;;;;;3.61;75.00;96652.55;109995;1251;71697;-69
2022/01/10 09:49:03;;;;;;;27.50;17.80;;;;;;;3.65;75.25;96650.77;109933;1251;67708;-70
2022/01/10 09:51:33;;;;;;;30.20;16.70;;;;;;;3.75;75.08;96647.60;109976;1251;69399;-70
2022/01/10 09:54:03;;;;;;;27.80;17.40;;;;;;;3.85;75.40;96646.86;109996;1251;59730;-69
2022/01/10 09:56:38;;;;;;;32.70;20.50;;;;;;;3.95;74.34;96647.11;109989;1249;59631;-72
2022/01/10 09:59:08;;;;;;;27.70;15.50;;;;;;;4.03;74.00;96649.21;109948;1249;71527;-69
2022/01/10 10:01:36;;;;;;;25.60;16.40;;;;;;;4.15;74.29;96643.38;110044;1250;67889;-67
2022/01/10 10:04:06;;;;;;;32.20;19.00;;;;;;;4.18;73.27;96647.66;109934;1251;69325;-69
2022/01/10 10:06:34;;;;;;;25.40;15.10;;;;;;;4.17;72.92;96646.16;109980;1251;59758;-69
2022/01/10 10:09:06;;;;;;;29.70;19.60;;;;;;;4.20;73.58;96647.73;109966;1251;59739;-68
2022/01/10 10:11:47;;;;;;;27.20;17.60;;;;;;;4.32;72.54;96648.23;109850;1251;70806;-70
2022/01/10 10:14:18;;;;;;;24.40;13.90;;;;;;;4.47;73.18;96644.39;110038;1249;68632;-72
2022/01/10 10:16:52;;;;;;;30.90;19.90;;;;;;;4.67;72.76;96647.63;110010;1251;68657;-71
2022/01/10 10:19:28;;;;;;;25.20;16.90;;;;;;;4.74;71.48;96648.80;109982;1251;59709;-69
2022/01/10 10:21:58;;;;;;;29.70;18.10;;;;;;;4.83;71.55;96644.60;109998;1250;59739;-69
2022/01/10 10:24:27;;;;;;;24.80;15.30;;;;;;;4.97;70.98;96645.09;109964;1251;71598;-69
2022/01/10 10:26:58;;;;;;;26.30;15.40;;;;;;;5.20;71.67;96645.72;109965;1251;67787;-71
2022/01/10 10:29:29;;;;;;;28.60;18.60;;;;;;;5.43;70.53;96646.30;109881;1251;68726;-69
2022/01/10 10:32:02;;;;;;;23.10;14.40;;;;;;;5.59;69.57;96647.04;109971;1249;59731;-70
2022/01/10 10:34:33;;;;;;;26.90;18.20;;;;;;;5.79;69.76;96646.94;109966;1251;59694;-69
2022/01/10 10:37:08;;;;;;;22.30;13.70;;;;;;;6.00;70.23;96643.45;110015;1251;71950;-69
2022/01/10 10:39:39;;;;;;;19.20;13.70;;;;;;;6.43;70.50;96644.39;110066;1250;68685;-70
2022/01/10 10:42:14;;;;;;;20.30;13.30;;;;;;;7.12;69.77;96647.37;109946;1251;69992;-70
2022/01/10 10:44:44;;;;;;;26.60;17.40;;;;;;;8.13;68.86;96644.30;109856;1250;59753;-70
2022/01/10 10:47:17;;;;;;;20.40;13.00;;;;;;;9.15;64.22;96645.15;110028;1250;59657;-70
2022/01/10 10:49:50;;;;;;;20.90;13.20;;;;;;;9.86;62.91;96646.38;110143;1249;70775;-70
2022/01/10 10:52:19;;;;;;;17.90;12.60;;;;;;;10.74;60.34;96647.27;110138;1250;66809;-71
2022/01/10 10:54:48;;;;;;;20.00;13.80;;;;;;;11.28;59.24;96648.73;110011;1250;69922;-68
2022/01/10 10:57:17;;;;;;;21.90;15.40;;;;;;;11.20;54.38;96652.34;109842;1251;59767;-70
2022/01/10 10:59:47;;;;;;;22.30;14.20;;;;;;;11.05;58.06;96654.70;110071;1251;59703;-70
2022/01/10 11:02:16;;;;;;;20.10;14.10;;;;;;;10.96;58.26;96656.04;110026;1248;71843;-69
2022/01/10 11:04:45;;;;;;;19.10;14.40;;;;;;;10.79;56.86;96660.13;110172;1250;68647;-69
2022/01/10 11:07:16;;;;;;;19.50;13.60;;;;;;;10.50;56.92;96660.28;110134;1250;68644;-70
2022/01/10 11:10:06;;;;;;;19.80;13.60;;;;;;;10.22;57.84;96655.11;110168;1250;59690;-71
2022/01/10 11:12:41;;;;;;;20.30;13.90;;;;;;;9.97;57.42;96662.39;109982;1249;59671;-71
2022/01/10 11:15:12;;;;;;;19.30;14.40;;;;;;;9.67;57.43;96664.71;110229;1248;72118;-70
2022/01/10 11:17:42;;;;;;;19.30;13.50;;;;;;;9.40;57.89;96666.66;110148;1249;68580;-69
2022/01/10 11:20:20;;;;;;;21.20;14.50;;;;;;;9.21;58.56;96667.48;110149;1250;70019;-68
2022/01/10 11:22:56;;;;;;;21.40;16.00;;;;;;;9.01;59.08;96667.64;109974;1252;59688;-70
2022/01/10 11:25:32;;;;;;;19.80;14.20;;;;;;;8.87;59.14;96666.16;110101;1251;59704;-69
2022/01/10 11:28:05;;;;;;;24.60;15.50;;;;;;;8.75;58.04;96666.23;110141;1248;71956;-68
2022/01/10 11:30:40;;;;;;;18.30;11.90;;;;;;;8.59;59.05;96668.64;109930;1250;68559;-68
2022/01/10 11:33:15;;;;;;;23.10;16.20;;;;;;;8.63;60.27;96670.59;109916;1251;69351;-68
2022/01/10 11:35:56;;;;;;;22.60;15.20;;;;;;;8.78;60.13;96674.55;110072;1251;59719;-71
2022/01/10 11:38:51;;;;;;;27.90;19.40;;;;;;;9.06;56.99;96674.93;110007;1251;59630;-70
2022/01/10 11:41:23;;;;;;;23.30;15.20;;;;;;;9.57;55.32;96673.46;110165;1250;71633;-70
2022/01/10 11:44:08;;;;;;;26.10;18.90;;;;;;;10.31;57.33;96670.59;110191;1250;67974;-67